Time;durP1;ratioP1;P1;durP2;ratioP2;P2;SDS_P1;SDS_P2;PMS_P1;PMS_P2;Temp;Humidity;BMP_temperature;BMP_pressure;BME280_temperature;BME280_humidity;BME280_pressure;Samples;Min_cycle;Max_cycle;Signal;HPM_P1;HPM_P2
2021/03/21 00:02:25;;;;;;;10.37;6.33;;;2.70;89.70;;;;;;5017337;28;20553;-81
2021/03/21 00:04:50;;;;;;;20.43;10.33;;;2.70;89.80;;;;;;5016358;28;20192;-81
2021/03/21 00:07:16;;;;;;;4.30;3.30;;;2.70;90.10;;;;;;5016832;28;20738;-80
2021/03/21 00:09:42;;;;;;;12.23;4.60;;;2.70;89.80;;;;;;5016057;28;20180;-78
2021/03/21 00:12:08;;;;;;;17.33;7.80;;;2.70;89.60;;;;;;5016366;28;20649;-80
2021/03/21 00:14:33;;;;;;;9.93;4.40;;;2.80;89.60;;;;;;5016511;28;20674;-81
2021/03/21 00:17:00;;;;;;;8.27;3.97;;;2.80;89.40;;;;;;5016664;28;20418;-81
2021/03/21 00:19:26;;;;;;;9.63;4.03;;;2.80;89.40;;;;;;5016396;28;20180;-79
2021/03/21 00:21:52;;;;;;;7.53;3.90;;;2.80;89.20;;;;;;5016465;28;20546;-80
2021/03/21 00:24:18;;;;;;;7.93;3.77;;;2.80;89.30;;;;;;5034925;28;20508;-80
2021/03/21 00:26:44;;;;;;;15.47;7.13;;;2.80;89.40;;;;;;5016510;28;20530;-80
2021/03/21 00:29:10;;;;;;;32.73;10.67;;;2.90;89.30;;;;;;5016621;28;21177;-80
2021/03/21 00:31:36;;;;;;;7.00;4.40;;;2.90;89.40;;;;;;5016352;28;20510;-81
2021/03/21 00:34:01;;;;;;;8.17;4.23;;;2.90;89.20;;;;;;5016485;28;20684;-80
2021/03/21 00:36:27;;;;;;;12.33;5.77;;;2.90;89.40;;;;;;5034409;28;20169;-81
2021/03/21 00:38:53;;;;;;;9.97;4.97;;;3.00;89.20;;;;;;5016741;28;20239;-80
2021/03/21 00:41:22;;;;;;;5.60;3.83;;;3.00;89.60;;;;;;5014883;28;20291;-78
2021/03/21 00:43:50;;;;;;;5.50;3.47;;;3.00;89.20;;;;;;5016023;28;20474;-80
2021/03/21 00:46:16;;;;;;;5.57;3.93;;;3.00;89.50;;;;;;5033963;28;20436;-80
2021/03/21 00:48:44;;;;;;;7.40;3.93;;;3.00;89.20;;;;;;5065398;28;20854;-80
2021/03/21 00:51:13;;;;;;;8.00;4.10;;;3.00;89.30;;;;;;5055557;28;20406;-80
2021/03/21 00:53:40;;;;;;;6.50;4.23;;;3.00;89.10;;;;;;5055108;28;21212;-80
2021/03/21 00:56:07;;;;;;;6.63;3.60;;;3.00;88.90;;;;;;5072402;28;20420;-79
2021/03/21 00:58:35;;;;;;;5.03;3.07;;;3.00;89.00;;;;;;5072931;28;20412;-80
2021/03/21 01:01:01;;;;;;;6.00;4.23;;;3.00;88.90;;;;;;5054704;28;20468;-81
2021/03/21 01:03:27;;;;;;;4.53;3.20;;;3.00;88.80;;;;;;5054162;28;20437;-80
2021/03/21 01:05:58;;;;;;;6.50;3.80;;;3.00;88.80;;;;;;5073483;28;20479;-80
2021/03/21 01:08:37;;;;;;;7.53;3.50;;;3.00;88.80;;;;;;5058138;28;20475;-80
2021/03/21 01:11:10;;;;;;;5.50;3.63;;;3.10;88.90;;;;;;5058278;28;20413;-80
2021/03/21 01:13:36;;;;;;;6.10;3.77;;;3.10;89.00;;;;;;5058253;28;20498;-80
2021/03/21 01:16:05;;;;;;;10.67;4.07;;;3.00;89.20;;;;;;5075664;28;20421;-81
2021/03/21 01:18:32;;;;;;;7.77;3.73;;;3.10;89.40;;;;;;5076438;28;20644;-81
2021/03/21 01:20:59;;;;;;;5.40;3.40;;;3.00;89.70;;;;;;5058056;28;20425;-81
2021/03/21 01:23:25;;;;;;;8.03;4.10;;;3.00;89.80;;;;;;5057921;28;20491;-80
2021/03/21 01:25:51;;;;;;;7.43;4.47;;;3.00;90.40;;;;;;5058090;28;20413;-80
2021/03/21 01:28:29;;;;;;;6.50;4.00;;;3.00;90.20;;;;;;5075884;28;20467;-80
2021/03/21 01:30:56;;;;;;;7.43;3.90;;;3.00;90.30;;;;;;5056310;28;20470;-80
2021/03/21 01:33:25;;;;;;;7.10;3.77;;;3.00;90.60;;;;;;5057623;28;20437;-80
2021/03/21 01:35:52;;;;;;;7.93;4.00;;;3.00;90.60;;;;;;5075922;28;20406;-80
2021/03/21 01:38:19;;;;;;;8.87;5.47;;;3.00;90.90;;;;;;5057285;28;20803;-80
2021/03/21 01:40:47;;;;;;;5.13;3.90;;;3.00;90.90;;;;;;5073565;28;20406;-80
2021/03/21 01:43:17;;;;;;;7.23;4.37;;;3.00;91.10;;;;;;5056558;28;20405;-79
2021/03/21 01:45:45;;;;;;;7.47;4.07;;;3.00;91.20;;;;;;5075418;28;20473;-81
2021/03/21 01:48:14;;;;;;;6.27;4.90;;;3.00;91.50;;;;;;5039016;28;20418;-80
2021/03/21 01:50:54;;;;;;;10.67;4.80;;;3.00;91.60;;;;;;5038294;28;20433;-80
2021/03/21 01:53:24;;;;;;;8.20;5.13;;;3.10;91.70;;;;;;5056358;28;20398;-80
2021/03/21 01:55:51;;;;;;;6.60;3.97;;;3.10;91.80;;;;;;5038139;28;20425;-80
2021/03/21 01:58:21;;;;;;;8.27;4.90;;;3.10;92.00;;;;;;5037849;28;20418;-81
2021/03/21 02:00:47;;;;;;;6.80;4.17;;;3.10;92.00;;;;;;5054842;28;20403;-80
2021/03/21 02:03:13;;;;;;;10.17;4.73;;;3.10;92.30;;;;;;5036412;28;20805;-81
2021/03/21 02:05:40;;;;;;;11.93;5.40;;;3.10;92.40;;;;;;5037320;28;20411;-81
2021/03/21 02:08:11;;;;;;;9.20;4.50;;;3.20;92.50;;;;;;5036699;28;20472;-80
2021/03/21 02:10:49;;;;;;;8.13;5.10;;;3.20;92.40;;;;;;5035882;28;20505;-80
2021/03/21 02:13:29;;;;;;;5.93;4.10;;;3.20;92.50;;;;;;5036664;28;20514;-81
2021/03/21 02:15:57;;;;;;;9.97;5.30;;;3.20;92.50;;;;;;5054884;28;20460;-81
2021/03/21 02:18:41;;;;;;;13.20;4.93;;;3.20;92.60;;;;;;5036877;28;20429;-80
2021/03/21 02:21:27;;;;;;;9.40;5.40;;;3.20;92.60;;;;;;5037929;28;21000;-81
2021/03/21 02:24:17;;;;;;;9.87;4.83;;;3.20;92.80;;;;;;5037995;28;20435;-80
2021/03/21 02:27:06;;;;;;;10.30;5.83;;;3.20;92.70;;;;;;5037837;28;20410;-81
2021/03/21 02:29:48;;;;;;;7.40;5.20;;;3.20;92.80;;;;;;5037106;28;20422;-80
2021/03/21 02:32:22;;;;;;;8.60;5.20;;;3.30;92.90;;;;;;5036781;28;20467;-81
2021/03/21 02:34:56;;;;;;;10.20;5.63;;;3.30;93.20;;;;;;5036103;28;20442;-79
2021/03/21 02:37:32;;;;;;;8.20;5.07;;;3.30;93.40;;;;;;5037113;28;20418;-79
2021/03/21 02:40:21;;;;;;;7.30;5.03;;;3.30;93.20;;;;;;5037573;28;20418;-79
2021/03/21 02:43:11;;;;;;;11.90;5.27;;;3.40;93.50;;;;;;5036758;28;20882;-79
2021/03/21 02:45:39;;;;;;;10.33;5.87;;;3.40;93.20;;;;;;5054677;28;20517;-79
2021/03/21 02:48:21;;;;;;;16.87;7.20;;;3.40;93.20;;;;;;5019923;28;20812;-79
2021/03/21 02:50:52;;;;;;;11.93;6.27;;;3.40;93.40;;;;;;5016549;28;20415;-79
2021/03/21 02:53:22;;;;;;;10.40;6.03;;;3.40;93.40;;;;;;5017999;28;20407;-79
2021/03/21 02:55:51;;;;;;;10.00;5.53;;;3.40;93.20;;;;;;5035674;28;20387;-78
2021/03/21 02:58:22;;;;;;;11.03;5.70;;;3.40;93.50;;;;;;5017515;28;20842;-79
2021/03/21 03:01:08;;;;;;;10.57;5.27;;;3.40;93.50;;;;;;5019061;28;20415;-80
2021/03/21 03:03:37;;;;;;;13.00;5.73;;;3.40;93.70;;;;;;5034500;28;20422;-81
2021/03/21 03:06:11;;;;;;;14.47;6.10;;;3.40;93.70;;;;;;5020054;28;20462;-80
2021/03/21 03:08:53;;;;;;;7.70;4.73;;;3.40;94.00;;;;;;5017843;28;20415;-80
2021/03/21 03:11:38;;;;;;;10.10;5.03;;;3.30;94.00;;;;;;5017722;28;20423;-80
2021/03/21 03:14:07;;;;;;;7.00;5.00;;;3.30;94.10;;;;;;5033780;28;20916;-80
2021/03/21 03:16:38;;;;;;;14.93;5.63;;;3.30;94.10;;;;;;5034066;28;20457;-80
2021/03/21 03:19:08;;;;;;;12.60;5.90;;;3.40;94.30;;;;;;5016821;28;20422;-80
2021/03/21 03:21:40;;;;;;;13.33;5.63;;;3.30;94.50;;;;;;5036248;28;20489;-80
2021/03/21 03:24:48;;;;;;;9.63;6.17;;;3.30;94.70;;;;;;5016506;28;20466;-80
2021/03/21 03:27:33;;;;;;;13.87;6.30;;;3.40;94.90;;;;;;5015948;28;20889;-81
2021/03/21 03:30:07;;;;;;;13.97;7.03;;;3.40;95.00;;;;;;5034553;28;20392;-81
2021/03/21 03:32:33;;;;;;;14.07;6.13;;;3.40;95.20;;;;;;5033837;28;20912;-82
2021/03/21 03:34:59;;;;;;;13.50;6.20;;;3.40;95.40;;;;;;5019934;28;20490;-81
2021/03/21 03:37:26;;;;;;;17.90;8.13;;;3.40;95.60;;;;;;5015403;28;20423;-80
2021/03/21 03:39:52;;;;;;;15.30;8.03;;;3.40;95.80;;;;;;5018970;28;20184;-80
2021/03/21 03:42:27;;;;;;;11.03;6.30;;;3.40;96.10;;;;;;5018292;28;20459;-80
2021/03/21 03:45:13;;;;;;;16.07;7.60;;;3.40;96.40;;;;;;5019624;28;20986;-80
2021/03/21 03:47:57;;;;;;;10.70;6.07;;;3.40;96.80;;;;;;5016487;28;20446;-80
2021/03/21 03:50:52;;;;;;;12.63;6.13;;;3.50;97.10;;;;;;5034887;28;20418;-81
2021/03/21 03:53:36;;;;;;;10.30;6.43;;;3.50;97.30;;;;;;5048857;28;20411;-80
2021/03/21 03:56:18;;;;;;;13.00;6.93;;;3.50;97.30;;;;;;5049890;28;20422;-80
2021/03/21 03:58:56;;;;;;;14.13;7.20;;;3.50;97.30;;;;;;5031932;28;20483;-80
2021/03/21 04:01:31;;;;;;;16.20;7.77;;;3.50;97.30;;;;;;5015318;28;20471;-81
2021/03/21 04:04:02;;;;;;;17.23;6.80;;;3.50;97.30;;;;;;5018051;28;20905;-81
2021/03/21 04:06:43;;;;;;;15.73;7.23;;;3.50;97.30;;;;;;5016296;28;20453;-80
2021/03/21 04:09:21;;;;;;;18.40;9.40;;;3.50;97.30;;;;;;5015400;28;20457;-81
2021/03/21 04:12:07;;;;;;;12.83;6.70;;;3.50;97.30;;;;;;5019607;28;20407;-80
2021/03/21 04:14:49;;;;;;;15.10;7.53;;;3.60;97.30;;;;;;5015790;28;20786;-80
2021/03/21 04:17:20;;;;;;;17.47;8.43;;;3.60;97.30;;;;;;5015551;28;20435;-80
2021/03/21 04:19:58;;;;;;;21.20;9.97;;;3.60;97.30;;;;;;5034328;28;20981;-80
2021/03/21 04:22:29;;;;;;;24.23;9.60;;;3.60;97.30;;;;;;5021090;28;20999;-80
2021/03/21 04:25:04;;;;;;;23.30;9.33;;;3.60;97.30;;;;;;5016617;28;20439;-81
2021/03/21 04:27:36;;;;;;;18.50;9.67;;;3.60;97.30;;;;;;5018025;28;20407;-81
2021/03/21 04:30:05;;;;;;;20.17;8.73;;;3.70;97.30;;;;;;5018647;28;20426;-80
2021/03/21 04:32:45;;;;;;;14.80;7.53;;;3.70;97.30;;;;;;5049219;28;20443;-80
2021/03/21 04:35:24;;;;;;;24.17;9.97;;;3.70;97.30;;;;;;5016181;28;20451;-80
2021/03/21 04:38:04;;;;;;;18.23;9.97;;;3.70;97.30;;;;;;5017595;28;20407;-80
2021/03/21 04:40:31;;;;;;;20.93;9.50;;;3.70;97.30;;;;;;5023038;28;20403;-80
2021/03/21 04:43:06;;;;;;;15.07;8.27;;;3.70;97.30;;;;;;5020167;28;20557;-80
2021/03/21 04:45:39;;;;;;;21.13;8.90;;;3.70;97.30;;;;;;5085911;23;20476;-82
2021/03/21 04:48:09;;;;;;;19.33;9.57;;;3.80;97.30;;;;;;5077305;28;20419;-82
2021/03/21 04:50:35;;;;;;;25.80;9.50;;;3.80;97.30;;;;;;5082121;28;20402;-82
2021/03/21 04:53:13;;;;;;;19.83;9.80;;;3.80;97.30;;;;;;5081924;28;20550;-83
2021/03/21 04:55:41;;;;;;;19.80;10.87;;;3.90;97.30;;;;;;5080870;28;20544;-82
2021/03/21 04:58:15;;;;;;;19.00;9.73;;;3.90;97.30;;;;;;5081466;28;20433;-82
2021/03/21 05:00:44;;;;;;;21.10;10.33;;;3.90;97.30;;;;;;5081085;28;20427;-83
2021/03/21 05:03:18;;;;;;;18.17;8.93;;;3.80;97.30;;;;;;5081750;28;20479;-82
2021/03/21 05:05:49;;;;;;;18.10;8.70;;;3.80;97.30;;;;;;5080520;28;20524;-82
2021/03/21 05:08:21;;;;;;;20.07;9.53;;;3.80;97.30;;;;;;5082451;28;20814;-82
2021/03/21 05:10:52;;;;;;;20.10;9.77;;;3.80;97.30;;;;;;5080455;28;20804;-82
2021/03/21 05:13:47;;;;;;;19.13;10.60;;;3.80;97.30;;;;;;5081499;28;20793;-84
2021/03/21 05:16:46;;;;;;;23.83;10.03;;;3.70;97.30;;;;;;5065563;28;20409;-83
2021/03/21 05:19:31;;;;;;;22.17;10.10;;;3.70;97.30;;;;;;5078682;28;20461;-83
2021/03/21 05:22:07;;;;;;;18.00;8.97;;;3.60;97.30;;;;;;5079626;28;20547;-82
2021/03/21 05:24:42;;;;;;;24.97;11.03;;;3.60;97.30;;;;;;5077796;28;20471;-81
2021/03/21 05:27:24;;;;;;;17.93;9.30;;;3.60;97.30;;;;;;5079572;28;20444;-81
2021/03/21 05:29:53;;;;;;;17.80;10.23;;;3.50;97.30;;;;;;5079155;28;20753;-83
2021/03/21 05:32:21;;;;;;;20.10;10.27;;;3.60;97.30;;;;;;5080898;28;20414;-82
2021/03/21 05:34:49;;;;;;;21.80;11.63;;;3.60;97.30;;;;;;5078969;28;20437;-82
2021/03/21 05:37:24;;;;;;;24.70;10.67;;;3.60;97.30;;;;;;5078909;28;20421;-82
2021/03/21 05:39:52;;;;;;;15.00;9.03;;;3.60;97.30;;;;;;5080015;28;20977;-82
2021/03/21 05:42:49;;;;;;;17.97;10.10;;;3.70;97.30;;;;;;5078858;28;20453;-83
2021/03/21 05:45:48;;;;;;;25.40;11.80;;;3.70;97.30;;;;;;5079491;28;20813;-83
2021/03/21 05:48:33;;;;;;;22.47;10.50;;;3.70;97.30;;;;;;5087178;28;20406;-82
2021/03/21 05:51:16;;;;;;;19.50;10.17;;;3.70;97.30;;;;;;5091667;28;20439;-79
2021/03/21 05:54:00;;;;;;;19.17;10.03;;;3.70;97.30;;;;;;5090681;28;20409;-84
2021/03/21 05:57:16;;;;;;;22.07;10.80;;;3.70;97.30;;;;;;5078609;28;20408;-79
2021/03/21 05:59:59;;;;;;;23.63;11.70;;;3.70;97.30;;;;;;5019422;28;20423;-83
2021/03/21 06:02:39;;;;;;;21.20;10.33;;;3.70;97.30;;;;;;5015572;28;20501;-81
2021/03/21 06:05:40;;;;;;;24.47;10.67;;;3.70;97.30;;;;;;5043662;28;20498;-82
2021/03/21 06:08:37;;;;;;;18.70;10.07;;;3.70;97.30;;;;;;5043392;28;20426;-82
2021/03/21 06:11:29;;;;;;;23.83;10.83;;;3.60;97.30;;;;;;5042517;28;20478;-83
2021/03/21 06:14:21;;;;;;;27.30;11.90;;;3.60;97.30;;;;;;5045990;28;20427;-83
2021/03/21 06:17:25;;;;;;;25.37;10.50;;;3.60;97.30;;;;;;5059293;28;20423;-83
2021/03/21 06:20:02;;;;;;;24.13;12.57;;;3.60;97.30;;;;;;5016928;28;20416;-84
2021/03/21 06:22:43;;;;;;;22.77;11.40;;;3.60;97.30;;;;;;5033589;28;20458;-84
2021/03/21 06:25:21;;;;;;;16.97;7.97;;;3.70;97.30;;;;;;5038424;28;20936;-83
2021/03/21 06:28:16;;;;;;;23.20;10.80;;;3.70;97.30;;;;;;5043560;28;20419;-82
2021/03/21 06:31:06;;;;;;;24.80;10.97;;;3.70;97.30;;;;;;5047113;28;20415;-83
2021/03/21 06:33:57;;;;;;;20.70;10.00;;;3.70;97.30;;;;;;5046515;28;20423;-83
2021/03/21 06:36:38;;;;;;;24.20;11.23;;;3.70;97.30;;;;;;5045099;28;20411;-84
2021/03/21 06:39:38;;;;;;;25.50;11.37;;;3.80;97.30;;;;;;5044839;28;20452;-83
2021/03/21 06:42:37;;;;;;;24.90;11.67;;;3.80;97.30;;;;;;5047670;28;20903;-81
2021/03/21 06:45:15;;;;;;;23.80;11.43;;;3.90;97.30;;;;;;5044342;28;20858;-84
2021/03/21 06:48:01;;;;;;;24.03;12.00;;;4.00;97.30;;;;;;5046311;28;20481;-83
2021/03/21 06:51:04;;;;;;;20.57;10.67;;;4.00;97.30;;;;;;5046805;28;20780;-83
2021/03/21 06:53:49;;;;;;;21.30;10.77;;;4.00;97.30;;;;;;5047392;28;20407;-83
2021/03/21 06:56:14;;;;;;;19.83;10.20;;;4.10;97.30;;;;;;5046457;28;20439;-81
2021/03/21 06:58:40;;;;;;;22.33;12.33;;;4.10;97.30;;;;;;5048241;28;20427;-83
2021/03/21 07:01:31;;;;;;;22.20;11.50;;;4.10;97.30;;;;;;5045027;28;20196;-83
2021/03/21 07:04:27;;;;;;;19.90;10.23;;;4.20;97.30;;;;;;5046939;28;20279;-83
2021/03/21 07:07:17;;;;;;;23.03;11.83;;;4.20;97.30;;;;;;5045285;28;20418;-83
2021/03/21 07:09:55;;;;;;;23.07;11.13;;;4.10;97.30;;;;;;5045451;28;20422;-83
2021/03/21 07:12:46;;;;;;;29.50;12.93;;;4.10;97.30;;;;;;5041549;28;20796;-82
2021/03/21 07:15:36;;;;;;;22.53;11.20;;;4.10;97.30;;;;;;5046212;28;21034;-82
2021/03/21 07:18:26;;;;;;;27.50;12.77;;;4.10;97.30;;;;;;5044321;28;20423;-82
2021/03/21 07:21:26;;;;;;;25.70;12.50;;;4.10;97.30;;;;;;5048361;28;20415;-84
2021/03/21 07:24:17;;;;;;;26.60;11.80;;;4.10;97.30;;;;;;5046641;28;20850;-80
2021/03/21 07:27:07;;;;;;;24.97;12.60;;;4.20;97.30;;;;;;5046491;28;20411;-84
2021/03/21 07:29:39;;;;;;;28.70;13.30;;;4.20;97.30;;;;;;5044641;28;20411;-83
2021/03/21 07:32:27;;;;;;;23.77;13.33;;;4.20;97.30;;;;;;5044310;28;20418;-83
2021/03/21 07:34:58;;;;;;;25.50;12.57;;;4.20;97.30;;;;;;5045495;28;21019;-83
2021/03/21 07:37:32;;;;;;;27.37;13.13;;;4.20;97.30;;;;;;5049022;28;20414;-83
2021/03/21 07:40:40;;;;;;;23.80;12.33;;;4.20;97.30;;;;;;5044167;28;20674;-82
2021/03/21 07:43:08;;;;;;;27.50;13.20;;;4.30;97.30;;;;;;5040765;28;20462;-82
2021/03/21 07:45:34;;;;;;;24.27;12.33;;;4.30;97.30;;;;;;5044130;28;20839;-83
2021/03/21 07:48:28;;;;;;;28.07;12.53;;;4.30;97.30;;;;;;5039633;28;20439;-84
2021/03/21 07:51:20;;;;;;;24.67;11.00;;;4.30;97.30;;;;;;5044519;28;20176;-84
2021/03/21 07:54:24;;;;;;;22.27;12.13;;;4.40;97.30;;;;;;5039258;28;20510;-84
2021/03/21 07:56:54;;;;;;;20.10;9.50;;;4.40;97.30;;;;;;5045065;28;20414;-84
2021/03/21 07:59:23;;;;;;;20.50;11.10;;;4.40;97.30;;;;;;5040468;28;20419;-83
2021/03/21 08:01:49;;;;;;;24.07;11.93;;;4.40;97.30;;;;;;5040858;28;20458;-82
2021/03/21 08:04:32;;;;;;;26.13;11.27;;;4.40;97.30;;;;;;5037888;28;21245;-84
2021/03/21 08:07:02;;;;;;;19.40;10.73;;;4.40;97.30;;;;;;5043602;28;20200;-82
2021/03/21 08:09:36;;;;;;;20.13;10.70;;;4.50;97.30;;;;;;5040659;28;20427;-83
2021/03/21 08:12:30;;;;;;;23.10;12.27;;;4.50;97.30;;;;;;5040533;28;20930;-81
2021/03/21 08:15:08;;;;;;;23.80;10.57;;;4.50;97.30;;;;;;5036799;28;20451;-85
2021/03/21 08:17:41;;;;;;;20.90;10.50;;;4.50;97.30;;;;;;5043682;28;20417;-84
2021/03/21 08:20:22;;;;;;;24.30;11.17;;;4.50;97.30;;;;;;5040262;28;20536;-83
2021/03/21 08:22:50;;;;;;;18.40;9.67;;;4.60;97.30;;;;;;5036548;28;20473;-84
2021/03/21 08:25:26;;;;;;;18.30;9.50;;;4.60;97.30;;;;;;5038145;28;20442;-83
2021/03/21 08:27:54;;;;;;;18.30;9.33;;;4.60;97.30;;;;;;5038757;28;20460;-84
2021/03/21 08:30:23;;;;;;;17.30;8.00;;;4.70;97.30;;;;;;5040299;28;20414;-82
2021/03/21 08:32:57;;;;;;;21.33;10.00;;;4.70;97.30;;;;;;5039707;28;20431;-85
2021/03/21 08:35:29;;;;;;;20.20;10.67;;;4.80;97.30;;;;;;5042465;28;20449;-81
2021/03/21 08:38:01;;;;;;;17.53;10.13;;;4.90;97.30;;;;;;5047162;28;20431;-84
2021/03/21 08:40:40;;;;;;;14.73;8.90;;;4.90;97.30;;;;;;5045969;28;20423;-83
2021/03/21 08:43:10;;;;;;;13.57;7.73;;;5.00;97.30;;;;;;5038602;28;20464;-84
2021/03/21 08:45:41;;;;;;;20.80;8.33;;;5.10;97.30;;;;;;5045411;28;20485;-84
2021/03/21 08:48:20;;;;;;;11.80;6.80;;;5.10;97.30;;;;;;5043238;28;20418;-83
2021/03/21 08:50:49;;;;;;;14.87;7.40;;;5.10;97.30;;;;;;5044751;28;20444;-82
2021/03/21 08:53:34;;;;;;;14.03;6.90;;;5.20;97.30;;;;;;5043186;28;20414;-85
2021/03/21 08:56:17;;;;;;;12.70;7.30;;;5.20;97.30;;;;;;5040454;28;20561;-85
2021/03/21 08:58:48;;;;;;;14.73;7.60;;;5.30;97.30;;;;;;5044236;28;20476;-83
2021/03/21 09:01:25;;;;;;;11.53;7.10;;;5.30;97.30;;;;;;5039976;28;20426;-84
2021/03/21 09:04:07;;;;;;;11.90;6.73;;;5.40;97.30;;;;;;5036155;28;20970;-83
2021/03/21 09:06:39;;;;;;;10.60;6.60;;;5.40;97.30;;;;;;5038842;28;20935;-83
2021/03/21 09:09:20;;;;;;;12.23;6.97;;;5.40;97.30;;;;;;5037234;28;20415;-83
2021/03/21 09:11:48;;;;;;;13.17;6.57;;;5.40;97.30;;;;;;5040203;28;20431;-82
2021/03/21 09:14:27;;;;;;;13.53;6.90;;;5.40;97.30;;;;;;5040665;28;20493;-85
2021/03/21 09:16:59;;;;;;;12.60;6.10;;;5.40;97.30;;;;;;5042211;28;20490;-85
2021/03/21 09:19:32;;;;;;;13.50;7.30;;;5.40;97.30;;;;;;5044932;28;20420;-84
2021/03/21 09:21:58;;;;;;;16.47;6.70;;;5.50;97.30;;;;;;5041518;28;20498;-84
2021/03/21 09:24:28;;;;;;;10.23;6.10;;;5.60;97.30;;;;;;5042597;28;20484;-84
2021/03/21 09:27:12;;;;;;;10.30;4.93;;;5.60;97.30;;;;;;5034758;28;20449;-84
2021/03/21 09:29:38;;;;;;;7.93;3.63;;;5.70;97.30;;;;;;5052080;28;20457;-85
2021/03/21 09:32:17;;;;;;;3.50;2.30;;;5.80;97.30;;;;;;5049537;28;20496;-85
2021/03/21 09:34:51;;;;;;;4.10;2.23;;;6.00;97.30;;;;;;5052756;28;20301;-85
2021/03/21 09:37:23;;;;;;;4.63;2.73;;;6.20;97.30;;;;;;5056201;28;20414;-85
2021/03/21 09:39:59;;;;;;;4.10;2.20;;;6.30;97.30;;;;;;5054193;28;20418;-84
2021/03/21 09:42:25;;;;;;;2.90;2.50;;;6.30;97.30;;;;;;5035024;28;21005;-83
2021/03/21 09:44:51;;;;;;;5.57;2.53;;;6.40;97.30;;;;;;5036220;28;20471;-85
2021/03/21 09:47:41;;;;;;;7.03;2.50;;;6.50;97.30;;;;;;5046893;28;20184;-84
2021/03/21 09:50:16;;;;;;;3.07;2.03;;;6.50;97.30;;;;;;5054178;28;20498;-84
2021/03/21 09:52:47;;;;;;;5.93;2.30;;;6.60;97.30;;;;;;5054091;28;20986;-84
2021/03/21 09:55:40;;;;;;;2.63;2.10;;;6.70;97.30;;;;;;5047768;28;20446;-85
2021/03/21 09:58:27;;;;;;;5.53;2.13;;;6.80;97.30;;;;;;5035792;28;20453;-87
2021/03/21 10:01:00;;;;;;;4.77;2.10;;;6.90;97.30;;;;;;5037069;28;20430;-85
2021/03/21 10:03:33;;;;;;;4.90;2.83;;;6.90;97.30;;;;;;5046742;28;20455;-85
2021/03/21 10:06:08;;;;;;;3.63;2.07;;;7.00;97.30;;;;;;5036806;28;20411;-85
2021/03/21 10:08:46;;;;;;;6.07;2.23;;;7.00;97.30;;;;;;5055913;28;20418;-84
2021/03/21 10:11:45;;;;;;;9.40;2.70;;;7.10;97.30;;;;;;5056725;28;20422;-85
2021/03/21 10:14:26;;;;;;;8.67;2.40;;;7.10;97.30;;;;;;5044739;28;20446;-85
2021/03/21 10:17:17;;;;;;;9.20;2.53;;;7.10;97.30;;;;;;5056604;28;20454;-84
2021/03/21 10:19:50;;;;;;;9.07;2.87;;;7.00;97.30;;;;;;5051996;28;20424;-85
2021/03/21 10:22:28;;;;;;;14.00;3.67;;;6.90;97.30;;;;;;5046300;28;20454;-84
2021/03/21 10:25:00;;;;;;;8.00;2.50;;;6.90;97.30;;;;;;5059265;28;20458;-83
2021/03/21 10:27:29;;;;;;;13.03;5.00;;;6.90;97.30;;;;;;5056954;28;20399;-86
2021/03/21 10:30:30;;;;;;;7.60;3.30;;;6.80;97.10;;;;;;5052276;28;20423;-85
2021/03/21 10:32:59;;;;;;;10.17;3.00;;;6.80;97.30;;;;;;5056583;28;20426;-86
2021/03/21 10:35:24;;;;;;;8.13;2.80;;;6.70;95.80;;;;;;5042778;28;20466;-83
2021/03/21 10:38:10;;;;;;;23.23;3.73;;;6.60;96.00;;;;;;5037257;28;20431;-86
2021/03/21 10:40:45;;;;;;;20.53;3.80;;;6.60;95.90;;;;;;5046417;28;20177;-85
2021/03/21 10:43:18;;;;;;;13.60;3.10;;;6.60;95.80;;;;;;5035888;28;20493;-83
2021/03/21 10:45:45;;;;;;;11.57;3.00;;;6.70;96.70;;;;;;5035704;28;20503;-86
2021/03/21 10:48:32;;;;;;;21.47;4.03;;;6.70;96.40;;;;;;5046793;28;20941;-86
2021/03/21 10:51:00;;;;;;;13.90;5.23;;;6.70;95.80;;;;;;5044426;28;20419;-86
2021/03/21 10:53:38;;;;;;;17.87;3.50;;;6.60;96.10;;;;;;5048375;28;20513;-85
2021/03/21 10:56:16;;;;;;;12.03;3.13;;;6.70;96.80;;;;;;5038836;28;20437;-85
2021/03/21 10:58:52;;;;;;;22.60;4.17;;;6.60;96.10;;;;;;5033883;28;20496;-86
2021/03/21 11:01:21;;;;;;;19.13;4.63;;;6.60;95.80;;;;;;5034518;28;20415;-85
2021/03/21 11:03:59;;;;;;;28.83;4.77;;;6.40;96.00;;;;;;5035452;28;20945;-85
2021/03/21 11:06:28;;;;;;;21.03;5.13;;;6.30;96.60;;;;;;5055822;28;20411;-85
2021/03/21 11:09:15;;;;;;;13.10;4.17;;;6.20;97.30;;;;;;5044776;28;20423;-86
2021/03/21 11:11:44;;;;;;;17.47;4.17;;;6.20;97.30;;;;;;5049850;28;20473;-86
2021/03/21 11:14:19;;;;;;;16.70;5.30;;;6.20;97.30;;;;;;5035530;28;20438;-86
2021/03/21 11:17:00;;;;;;;23.97;3.83;;;6.30;97.30;;;;;;5037722;28;20410;-86
2021/03/21 11:19:35;;;;;;;20.77;5.40;;;6.40;97.30;;;;;;5033582;28;20407;-87
2021/03/21 11:22:10;;;;;;;13.53;4.90;;;6.40;97.30;;;;;;5033386;28;20450;-85
2021/03/21 11:24:42;;;;;;;23.47;4.63;;;6.40;97.30;;;;;;5043107;28;20446;-84
2021/03/21 11:27:13;;;;;;;25.33;4.43;;;6.40;97.30;;;;;;5054468;28;21275;-85
2021/03/21 11:29:41;;;;;;;26.10;5.13;;;6.40;97.30;;;;;;5056296;28;20478;-85
2021/03/21 11:32:28;;;;;;;29.17;4.80;;;6.40;97.30;;;;;;5053920;28;20485;-85
2021/03/21 11:34:58;;;;;;;11.70;4.03;;;6.40;97.30;;;;;;5034987;28;20435;-84
2021/03/21 11:37:30;;;;;;;25.80;5.57;;;6.40;97.30;;;;;;5035033;28;21020;-84
2021/03/21 11:40:24;;;;;;;24.90;5.27;;;6.30;97.30;;;;;;5039963;28;20431;-87
2021/03/21 11:43:16;;;;;;;30.57;5.10;;;6.30;97.30;;;;;;5041424;28;20561;-84
2021/03/21 11:45:42;;;;;;;15.17;4.17;;;6.20;97.30;;;;;;5041524;28;20471;-84
2021/03/21 11:48:07;;;;;;;20.27;5.07;;;6.20;97.30;;;;;;5043186;28;20977;-84
2021/03/21 11:50:36;;;;;;;19.07;4.13;;;6.20;97.30;;;;;;5044756;28;20189;-83
2021/03/21 11:53:05;;;;;;;20.60;6.40;;;6.20;97.30;;;;;;5044530;28;20192;-83
2021/03/21 11:55:37;;;;;;;32.93;5.40;;;6.30;97.30;;;;;;5035624;28;20459;-83
2021/03/21 11:58:24;;;;;;;25.73;5.90;;;6.40;97.30;;;;;;5043800;28;20435;-86
2021/03/21 12:01:00;;;;;;;16.93;4.30;;;6.40;97.30;;;;;;5038036;28;20434;-84
2021/03/21 12:03:27;;;;;;;17.60;4.33;;;6.50;97.30;;;;;;5052070;28;20473;-85
2021/03/21 12:06:06;;;;;;;19.23;4.07;;;6.60;97.30;;;;;;5053431;28;20442;-86
2021/03/21 12:08:41;;;;;;;21.57;4.13;;;6.80;97.30;;;;;;5072012;23;20486;-74
2021/03/21 12:11:16;;;;;;;17.47;4.73;;;6.80;97.30;;;;;;5025517;28;20438;-73
2021/03/21 12:13:42;;;;;;;21.37;4.13;;;6.70;97.30;;;;;;5018595;28;20420;-73
2021/03/21 12:16:40;;;;;;;20.57;5.13;;;6.70;97.30;;;;;;5010902;28;20745;-73
2021/03/21 12:19:27;;;;;;;20.83;5.10;;;6.70;97.30;;;;;;5009907;28;20404;-73
2021/03/21 12:22:03;;;;;;;17.90;3.93;;;6.70;97.30;;;;;;5011389;28;20494;-72
2021/03/21 12:24:30;;;;;;;12.03;4.07;;;6.70;97.30;;;;;;5009590;28;20454;-72
2021/03/21 12:27:23;;;;;;;31.57;5.13;;;6.70;97.30;;;;;;5010191;28;20408;-73
2021/03/21 12:29:51;;;;;;;17.40;5.90;;;6.70;97.30;;;;;;5009477;28;20998;-73
2021/03/21 12:32:16;;;;;;;30.17;5.37;;;6.70;97.30;;;;;;5009866;28;20444;-74
2021/03/21 12:34:48;;;;;;;29.70;5.30;;;6.70;97.30;;;;;;5010230;28;20497;-74
2021/03/21 12:37:17;;;;;;;28.27;8.57;;;6.70;97.30;;;;;;5009257;28;20181;-73
2021/03/21 12:39:53;;;;;;;21.70;6.40;;;6.80;97.30;;;;;;5013761;28;20944;-73
2021/03/21 12:42:28;;;;;;;27.20;8.57;;;6.80;97.30;;;;;;5019118;28;20475;-74
2021/03/21 12:45:17;;;;;;;19.13;5.07;;;6.80;97.30;;;;;;5018314;28;20802;-72
2021/03/21 12:47:59;;;;;;;21.60;4.93;;;7.00;97.30;;;;;;5018029;28;21007;-73
2021/03/21 12:50:24;;;;;;;18.97;5.43;;;7.00;97.30;;;;;;5018743;28;20502;-73
2021/03/21 12:52:51;;;;;;;22.03;5.17;;;7.30;97.30;;;;;;5017586;28;20506;-74
2021/03/21 12:55:17;;;;;;;17.60;6.23;;;7.50;97.30;;;;;;5022090;28;20196;-74
2021/03/21 12:57:43;;;;;;;35.80;6.20;;;7.60;97.30;;;;;;5013450;28;20428;-73
2021/03/21 13:00:16;;;;;;;27.00;5.80;;;7.60;97.30;;;;;;5009877;28;20857;-73
2021/03/21 13:02:42;;;;;;;24.70;5.67;;;7.50;97.30;;;;;;5014486;28;20448;-74
2021/03/21 13:05:23;;;;;;;23.30;6.33;;;7.50;97.30;;;;;;5015161;28;20435;-74
2021/03/21 13:07:49;;;;;;;17.13;4.53;;;7.40;97.30;;;;;;5017589;28;20234;-73
2021/03/21 13:10:15;;;;;;;22.90;5.90;;;7.30;97.30;;;;;;5034257;28;20407;-74
2021/03/21 13:12:41;;;;;;;19.90;5.37;;;7.40;97.30;;;;;;5051362;28;20251;-72
2021/03/21 13:15:08;;;;;;;17.87;4.30;;;7.50;97.30;;;;;;5035395;28;20414;-74
2021/03/21 13:17:34;;;;;;;21.83;5.40;;;7.50;97.30;;;;;;5036476;28;20869;-73
2021/03/21 13:19:59;;;;;;;25.20;4.93;;;7.60;97.30;;;;;;5054589;28;20421;-72
2021/03/21 13:22:25;;;;;;;23.10;5.60;;;7.70;97.30;;;;;;5053691;28;20237;-74
2021/03/21 13:24:51;;;;;;;20.90;6.27;;;7.70;97.30;;;;;;5036060;28;20176;-74
2021/03/21 13:27:16;;;;;;;23.00;5.03;;;7.70;97.30;;;;;;5052929;28;20172;-74
2021/03/21 13:29:42;;;;;;;30.00;6.30;;;7.70;97.30;;;;;;5053090;28;20271;-74
2021/03/21 13:32:08;;;;;;;29.90;5.53;;;7.70;97.30;;;;;;5035859;28;20226;-73
2021/03/21 13:34:34;;;;;;;19.10;5.37;;;7.70;97.30;;;;;;5054380;28;20195;-74